Latest Weather Observations for Hervey Bay

IDQ60801

Issued at 10:02 pm EST Friday 29 April 2016 (issued every 30 minutes, with the page automatically refreshed every 10 minutes)

About weather observations | Map of weather stations | Latest weather observations for QLD | Other Formats
Station Details ID: 040405 Name: HERVEY BAY AIRPORT Lat: -25.32 Lon: 152.88 Height: 12.98 m
Data from the previous 72 hours. | See also: Recent months at Hervey Bay
Date/Time
EST
Temp
°C
App
Temp
°C
Dew
Point
Rel
Hum
%
Delta-T
°C
Wind Press
QNH
hPa
Press
MSL
hPa
Rain
since 9 am
mm
Dir
 
Spd
km/h
Gust
km/h
Spd
kts
Gust
kts
29/10:00pm 21.3 23.2 18.9 86 1.5 SSE 7 11 4 6 1020.8 1020.7 0.4
29/09:30pm 21.3 23.1 18.7 85 1.6 SSE 7 11 4 6 1020.9 1020.8 0.4
29/09:00pm 21.6 23.5 19.0 85 1.6 SSE 7 9 4 5 1020.9 1020.8 0.2
29/08:30pm 21.6 23.1 18.8 84 1.8 SE 9 15 5 8 1020.9 1020.8 0.2
29/08:00pm 22.0 22.6 19.5 86 1.6 SSE 15 24 8 13 1021.0 1020.9 0.2
29/07:30pm 22.4 22.1 19.6 84 1.8 ESE 20 35 11 19 1020.8 1020.7 0.2
29/07:00pm 22.9 23.3 18.9 78 2.5 SE 15 28 8 15 1020.4 1020.3 0.2
29/06:30pm 23.4 24.7 20.2 82 2.1 ESE 13 20 7 11 1020.1 1020.0 0.2
29/06:00pm 23.3 24.7 20.4 84 1.9 ESE 13 20 7 11 1019.7 1019.6 0.2
29/05:30pm 23.5 23.7 20.2 82 2.1 E 19 24 10 13 1019.7 1019.6 0.2
29/05:00pm 24.6 26.2 19.9 75 3.0 SE 11 15 6 8 1019.1 1019.0 0.2
29/04:30pm 24.5 25.7 20.0 76 2.9 SE 13 20 7 11 1018.6 1018.5 0.2
29/04:00pm 25.0 24.9 19.6 72 3.5 ESE 19 28 10 15 1018.6 1018.5 0.2
29/03:30pm 26.2 26.7 20.1 69 4.0 SE 17 30 9 16 1018.4 1018.3 0.2
29/03:00pm 26.6 26.1 20.0 67 4.3 ESE 22 30 12 16 1018.5 1018.4 0.2
29/02:30pm 26.6 26.6 19.7 66 4.5 SE 19 30 10 16 1018.5 1018.4 0.2
29/02:00pm 26.2 25.6 19.8 68 4.1 ESE 22 32 12 17 1018.6 1018.5 0.2
29/01:30pm 27.1 26.9 19.7 64 4.8 ESE 20 28 11 15 1018.7 1018.6 0.2
29/01:00pm 27.0 27.0 20.1 66 4.5 ESE 20 30 11 16 1018.9 1018.8 0.2
29/12:30pm 27.3 27.4 19.9 64 4.8 ESE 19 28 10 15 1019.4 1019.3 0.2
29/12:00pm 26.9 27.3 20.7 69 4.1 ESE 19 26 10 14 1019.9 1019.8 0.2
29/11:30am 26.8 27.3 20.9 70 3.9 SE 19 32 10 17 1020.6 1020.5 0.2
29/11:00am 26.1 27.4 20.9 73 3.4 ESE 15 22 8 12 1021.1 1021.0 0.0
29/10:30am 25.8 26.6 20.6 73 3.4 ESE 17 26 9 14 1021.5 1021.4 0.0
29/10:00am 25.0 25.4 20.7 77 2.8 ESE 19 28 10 15 1021.7 1021.6 0.0
29/09:30am 24.4 26.4 20.7 80 2.4 SE 11 20 6 11 1021.9 1021.8 0.0
29/09:00am 24.1 25.9 20.4 80 2.4 SE 11 20 6 11 1022.0 1021.9 2.4
29/08:30am 24.2 24.9 20.5 80 2.4 SE 17 22 9 12 1021.9 1021.8 2.4
29/08:00am 22.9 25.7 20.8 88 1.4 S 7 13 4 7 1021.6 1021.5 2.4
29/07:30am 20.9 22.3 19.6 92 0.8 SSW 11 13 6 7 1021.5 1021.4 2.4
29/07:00am 20.0 21.5 18.8 93 0.7 SSW 9 13 5 7 1021.1 1021.0 2.4
29/06:30am 19.5 20.4 18.5 94 0.6 SSW 11 13 6 7 1021.0 1020.9 2.4
29/06:00am 19.4 20.3 18.4 94 0.6 SSW 11 13 6 7 1020.8 1020.7 2.4
29/05:30am 19.6 20.1 18.4 93 0.7 SSW 13 17 7 9 1020.5 1020.4 2.4
29/05:00am 19.6 20.9 18.4 93 0.7 SSW 9 13 5 7 1020.2 1020.1 2.4
29/04:30am 19.4 20.6 18.2 93 0.7 S 9 15 5 8 1020.3 1020.2 2.4
29/04:00am 19.4 20.2 18.2 93 0.7 SSW 11 15 6 8 1020.0 1019.9 2.4
29/03:30am 19.4 20.6 18.2 93 0.7 SSW 9 13 5 7 1020.0 1019.9 2.4
29/03:00am 19.8 21.2 18.6 93 0.7 SW 9 13 5 7 1020.1 1020.0 2.4
29/02:47am 19.9 21.8 18.6 92 0.8 W 6 7 3 4 1020.2 1020.1 2.4
29/02:37am 20.0 21.8 18.7 92 0.8 WSW 7 11 4 6 1020.4 1020.3 2.4
29/02:30am 20.1 22.2 18.9 93 0.8 W 6 9 3 5 1020.5 1020.4 2.4
29/02:28am 20.1 22.2 18.9 93 0.8 WNW 6 17 3 9 1020.5 1020.4 2.4
29/02:15am 19.9 20.9 18.6 92 0.8 SSW 11 15 6 8 1020.5 1020.4 0.8
29/02:00am 20.0 21.0 18.7 92 0.8 SSW 11 13 6 7 1020.4 1020.3 0.0
29/01:30am 20.2 21.2 18.7 91 0.9 SSW 11 13 6 7 1020.6 1020.5 0.0
29/01:00am 20.4 21.7 18.5 89 1.2 SSW 9 11 5 6 1020.8 1020.7 0.0
29/12:30am 21.5 23.3 18.7 84 1.8 S 7 11 4 6 1020.8 1020.7 0.0
29/12:00am 22.4 24.0 19.2 82 2.0 SSE 9 15 5 8 1021.0 1020.9 0.0
 
Date/Time
EST
Temp
°C
App
Temp
°C
Dew
Point
Rel
Hum
%
Delta-T
°C
Wind Press
QNH
hPa
Press
MSL
hPa
Rain
since 9 am
mm
Dir
 
Spd
km/h
Gust
km/h
Spd
kts
Gust
kts
28/11:30pm 22.6 23.9 19.4 82 2.0 SE 11 19 6 10 1021.2 1021.1 0.0
28/11:00pm 22.8 24.1 19.2 80 2.3 SE 11 19 6 10 1021.6 1021.5 0.0
28/10:30pm 23.0 23.9 19.2 79 2.4 SE 13 20 7 11 1021.8 1021.7 0.0
28/10:00pm 23.0 24.0 19.4 80 2.3 SE 13 20 7 11 1021.8 1021.7 0.0
28/09:30pm 22.9 24.2 19.3 80 2.3 SE 11 17 6 9 1021.8 1021.7 0.0
28/09:00pm 21.8 23.3 19.0 84 1.8 SSE 9 13 5 7 1021.7 1021.6 0.0
28/08:30pm 21.8 23.3 19.0 84 1.8 S 9 11 5 6 1021.8 1021.7 0.0
28/08:00pm 21.7 23.0 18.5 82 2.0 S 9 13 5 7 1021.7 1021.6 0.0
28/07:30pm 21.8 23.1 18.4 81 2.1 S 9 11 5 6 1021.6 1021.5 0.0
28/07:00pm 22.3 23.6 18.5 79 2.4 S 9 13 5 7 1021.5 1021.4 0.0
28/06:30pm 22.6 23.9 18.4 77 2.6 SSE 9 17 5 9 1021.1 1021.0 0.0
28/06:00pm 23.0 23.9 18.3 75 2.9 SSE 11 15 6 8 1020.9 1020.8 0.0
28/05:30pm 23.7 23.7 18.1 71 3.5 SE 15 20 8 11 1020.7 1020.6 0.0
28/05:00pm 24.3 23.8 17.8 67 4.1 SE 17 20 9 11 1020.5 1020.4 0.0
28/04:30pm 24.9 24.1 17.9 65 4.4 SE 19 26 10 14 1020.1 1020.0 0.0
28/04:00pm 25.6 24.6 17.5 61 5.1 ESE 19 26 10 14 1019.9 1019.8 0.0
28/03:30pm 26.1 25.1 18.0 61 5.1 ESE 20 30 11 16 1019.8 1019.7 0.0
28/03:00pm 26.4 24.8 17.5 58 5.6 ESE 22 32 12 17 1019.7 1019.6 0.0
28/02:30pm 26.7 24.9 17.8 58 5.6 ESE 24 33 13 18 1019.7 1019.6 0.0
28/02:00pm 26.9 25.4 18.5 60 5.3 ESE 24 39 13 21 1019.7 1019.6 0.0
28/01:30pm 27.3 26.4 18.3 58 5.7 ESE 20 30 11 16 1019.7 1019.6 0.0
28/01:00pm 27.0 25.6 18.8 60 5.2 E 24 32 13 17 1019.9 1019.8 0.0
28/12:30pm 26.5 25.0 19.4 65 4.6 ESE 26 39 14 21 1020.2 1020.1 0.0
28/12:00pm 27.0 26.0 18.8 60 5.2 ESE 22 35 12 19 1020.5 1020.4 0.0
28/11:30am 26.6 25.8 18.5 61 5.2 ESE 20 32 11 17 1020.9 1020.8 0.0
28/11:00am 26.7 25.8 19.1 63 4.9 ESE 22 33 12 18 1021.0 1020.9 0.0
28/10:30am 26.5 25.5 18.9 63 4.9 ESE 22 35 12 19 1021.4 1021.3 0.0
28/10:00am 26.3 25.9 19.4 66 4.4 ESE 20 30 11 16 1021.6 1021.5 0.0
28/09:30am 26.0 25.9 19.6 68 4.1 ESE 19 28 10 15 1021.7 1021.6 0.0
28/09:00am 25.7 26.4 19.6 69 3.9 SE 15 24 8 13 1021.6 1021.5 0.4
28/08:30am 25.1 26.0 19.2 70 3.8 SE 13 20 7 11 1021.6 1021.5 0.4
28/08:00am 24.2 24.8 18.6 71 3.5 SE 13 19 7 10 1021.1 1021.0 0.4
28/07:30am 23.2 24.1 18.3 74 3.1 SSE 11 20 6 11 1020.8 1020.7 0.4
28/07:00am 21.5 22.5 17.7 79 2.3 S 9 13 5 7 1020.7 1020.6 0.4
28/06:30am 20.7 21.7 17.7 83 1.8 S 9 15 5 8 1020.5 1020.4 0.4
28/06:00am 20.8 21.6 18.2 85 1.6 SSE 11 17 6 9 1020.2 1020.1 0.4
28/05:30am 20.6 21.8 18.2 86 1.5 S 9 11 5 6 1020.1 1020.0 0.4
28/05:00am 21.4 22.4 18.6 84 1.8 SSE 11 17 6 9 1020.0 1019.9 0.4
28/04:30am 21.0 22.6 18.2 84 1.7 SSE 7 9 4 5 1020.0 1019.9 0.4
28/04:00am 21.6 22.6 18.6 83 1.9 SSE 11 19 6 10 1020.0 1019.9 0.4
28/03:30am 21.1 22.2 18.1 83 1.9 SSE 9 17 5 9 1019.9 1019.8 0.4
28/03:00am 20.6 21.9 18.4 87 1.4 SSW 9 13 5 7 1020.0 1019.9 0.4
28/02:30am 21.4 22.6 18.2 82 2.0 S 9 11 5 6 1020.0 1019.9 0.4
28/02:00am 21.5 22.8 18.5 83 1.9 SSE 9 15 5 8 1020.2 1020.1 0.4
28/01:30am 21.0 22.4 18.6 86 1.5 SSE 9 11 5 6 1020.4 1020.3 0.4
28/01:00am 21.2 22.4 18.2 83 1.9 SSE 9 15 5 8 1020.5 1020.4 0.4
28/12:30am 21.6 22.3 18.0 80 2.2 SSE 11 17 6 9 1020.5 1020.4 0.4
28/12:00am 21.5 22.1 18.7 84 1.8 SE 13 20 7 11 1020.8 1020.7 0.4
 
Date/Time
EST
Temp
°C
App
Temp
°C
Dew
Point
Rel
Hum
%
Delta-T
°C
Wind Press
QNH
hPa
Press
MSL
hPa
Rain
since 9 am
mm
Dir
 
Spd
km/h
Gust
km/h
Spd
kts
Gust
kts
27/11:30pm 21.1 22.8 19.4 90 1.1 SSE 9 13 5 7 1020.9 1020.8 0.4
27/11:00pm 21.0 23.0 19.1 89 1.2 SSE 7 11 4 6 1021.1 1021.0 0.4
27/10:30pm 21.2 22.4 19.1 88 1.3 SSE 11 17 6 9 1021.3 1021.2 0.4
27/10:00pm 21.2 22.5 19.3 89 1.2 SSE 11 19 6 10 1021.3 1021.2 0.4
27/09:30pm 21.2 22.7 18.9 87 1.4 SSE 9 15 5 8 1021.2 1021.1 0.2
27/09:00pm 22.0 23.1 18.8 82 2.0 SSE 11 20 6 11 1021.2 1021.1 0.0
27/08:30pm 22.0 22.6 18.6 81 2.1 SSE 13 20 7 11 1021.3 1021.2 0.0
27/08:00pm 21.8 21.9 18.4 81 2.1 SE 15 24 8 13 1021.2 1021.1 0.0
27/07:30pm 22.3 21.1 18.5 79 2.4 ESE 22 32 12 17 1021.0 1020.9 0.0
27/07:00pm 22.4 22.5 18.4 78 2.5 ESE 15 24 8 13 1020.8 1020.7 0.0
27/06:30pm 23.0 23.5 17.5 71 3.4 SSE 11 15 6 8 1020.4 1020.3 0.0
27/06:00pm 23.4 23.5 17.4 69 3.7 SSE 13 20 7 11 1020.1 1020.0 0.0
27/05:30pm 23.7 23.4 17.4 68 3.9 SE 15 20 8 11 1020.0 1019.9 0.0
27/05:00pm 24.2 23.1 17.2 65 4.3 SE 19 28 10 15 1019.8 1019.7 0.0
27/04:30pm 24.6 23.8 17.1 63 4.6 SE 17 26 9 14 1019.7 1019.6 0.0
27/04:00pm 25.0 23.7 17.2 62 4.8 SE 20 28 11 15 1019.3 1019.2 0.0
27/03:30pm 25.4 24.0 17.1 60 5.2 SE 20 30 11 16 1019.0 1018.9 0.0
27/03:00pm 25.7 24.4 16.8 58 5.5 SE 19 30 10 16 1019.0 1018.9 0.0
27/02:30pm 26.1 24.8 16.9 57 5.7 SE 19 33 10 18 1019.0 1018.9 0.0
27/02:00pm 25.9 24.1 17.0 58 5.5 SE 22 35 12 19 1019.0 1018.9 0.0
27/01:30pm 25.7 24.2 16.8 58 5.5 SE 20 35 11 19 1019.2 1019.1 0.0
27/01:00pm 26.4 24.6 16.9 56 5.9 SE 22 32 12 17 1019.4 1019.3 0.0
27/12:30pm 26.1 23.4 16.6 55 5.9 ESE 26 39 14 21 1020.0 1019.9 0.0
27/12:00pm 26.2 23.9 15.6 52 6.4 SE 22 30 12 16 1020.2 1020.1 0.0
27/11:30am 26.0 23.6 16.5 55 5.9 SE 24 39 13 21 1020.4 1020.3 0.0
27/11:00am 25.9 24.5 16.5 56 5.8 SE 19 32 10 17 1020.7 1020.6 0.0
27/10:30am 25.7 24.2 17.6 61 5.1 SE 22 39 12 21 1020.9 1020.8 0.0
27/10:00am 25.4 23.9 17.8 62 4.8 SE 22 33 12 18 1021.2 1021.1 0.0
27/09:30am 25.8 24.9 18.2 63 4.8 SE 20 33 11 18 1021.5 1021.4 0.0
27/09:00am 24.8 23.4 18.0 66 4.3 SE 22 32 12 17 1021.6 1021.5 12.2
27/08:30am 24.2 23.2 17.9 68 3.9 SE 20 32 11 17 1021.5 1021.4 12.2
27/08:00am 24.1 23.6 17.8 68 3.9 SE 17 24 9 13 1021.2 1021.1 12.2
27/07:30am 23.9 23.3 17.6 68 3.9 SE 17 22 9 12 1020.9 1020.8 12.2
27/07:00am 23.2 23.2 17.2 69 3.7 SE 13 19 7 10 1020.8 1020.7 12.2
27/06:30am 22.6 22.1 16.9 70 3.5 SE 15 26 8 14 1020.5 1020.4 12.2
27/06:00am 22.1 21.9 16.8 72 3.2 ESE 13 22 7 12 1020.2 1020.1 12.2
27/05:30am 22.3 21.3 16.6 70 3.5 SE 17 28 9 15 1020.0 1019.9 12.2
27/05:00am 22.0 22.1 16.5 71 3.3 SE 11 20 6 11 1019.8 1019.7 12.2
27/04:30am 22.0 21.2 16.1 69 3.6 SE 15 20 8 11 1019.6 1019.5 12.2
27/04:00am 21.9 21.2 16.4 71 3.3 SE 15 24 8 13 1019.6 1019.5 12.2
27/03:30am 21.9 21.7 16.6 72 3.2 SE 13 24 7 13 1019.6 1019.5 12.2
27/03:00am 21.8 21.0 17.0 74 2.9 SE 17 22 9 12 1019.6 1019.5 12.2
27/02:30am 21.0 21.8 18.2 84 1.7 SE 11 19 6 10 1019.7 1019.6 12.2
27/02:00am 20.7 22.1 18.6 88 1.3 S 9 15 5 8 1020.0 1019.9 12.2
27/01:30am 20.9 21.9 18.7 87 1.4 SSE 11 20 6 11 1020.1 1020.0 12.2
27/01:00am 20.8 21.1 18.7 88 1.3 SSE 15 24 8 13 1020.7 1020.6 12.2
27/12:30am 20.7 20.6 18.8 89 1.2 SSE 17 28 9 15 1020.7 1020.6 12.2
27/12:00am 21.4 21.6 18.6 84 1.8 SE 15 24 8 13 1020.9 1020.8 11.8
 
Date/Time
EST
Temp
°C
App
Temp
°C
Dew
Point
Rel
Hum
%
Delta-T
°C
Wind Press
QNH
hPa
Press
MSL
hPa
Rain
since 9 am
mm
Dir
 
Spd
km/h
Gust
km/h
Spd
kts
Gust
kts
26/11:30pm 21.1 22.1 18.7 86 1.5 SSE 11 20 6 11 1021.2 1021.1 11.8
26/11:00pm 20.7 20.2 17.9 84 1.7 SE 17 28 9 15 1021.4 1021.3 11.8
26/10:30pm 20.2 21.1 18.3 89 1.2 SSE 11 15 6 8 1021.6 1021.5 11.8

Other Formats:

Comma delimited format used in spreadsheet applications
http://www.bom.gov.au/fwo/IDQ60801/IDQ60801.95565.axf

JavaScript Object Notation format (JSON) in row-major order
http://www.bom.gov.au/fwo/IDQ60801/IDQ60801.95565.json